Simmons Army Air Field
KFBG : rendu visible

Aérodrome :











RETROUVEZ-NOUS SUR...

 
LOGIN :

S'inscrire | Disclaimer

   EN    FR    IT 

 









Légende :    VFR   VFR Marginal   IFR   IFR Intensif   IFR Très Intensif
Visi : 
Plafond : 
>= 8 km
>= 3000ft
5 à 8 km
1000 à 3000 ft
1500m à 5 km
500 à 1000 ft
800 à 1500m
200 à 500 ft
< 800m
< 200 ft
Symboles :   Orages  Brouillard  Fortes neiges  Fortes précipitations  Vent > 20 kt






- Altitude de l'aérodrome : 244 ft


KFBG - Simmons Army Air Field

DERNIER METAR :
  • 311956Z AUTO 36006KT 10SM CLR 25/10 A3007 RMK AO2 SLP184

METARs EXPIRÉS :
  • 311936Z AUTO 06005KT 10SM FEW150 FEW200 25/11 A3008 RMK AO2 SLP187
  • 311856Z AUTO 02009KT 10SM FEW160 FEW210 24/10 A3010 RMK AO2 SLP194
  • 311756Z AUTO 07009KT 10SM FEW090 SCT110 BKN160 BKN200 24/11 A3010 RMK AO2 SLP194 T02420105 10254 20205 58001

TAF TAF KFBG
Valide du 31 à 17h jusqu'au 01 à 23h UTC


311700Z 3117/0123 04012G18KT 9999 FEW050 QNH3009INS
BECMG 3119/3120 06009KT 9999 FEW050 QNH3009INS TX30/3121Z TN14/0110Z
FIR KZDC / Amérique du Nord



MET'MAP, la Météo Aéronautique d'un coup d'oeil ! - Copyright ORBIFLY Décembre 2007 - Disclaimer

ORBIFLY MET'MAP TEAM :

Programmation & Développement : Alexandra Zaïnal
Sur une idée originale de : Baudouin d'Aumeries
Assistance à la programmation : Marc-Olivier Méhu
Soutien technique & logistique : Manuel Goepfert

Contact : metmap@orbifly.com




SOURCES & CREDITS :

   NOAA       Earth
Advisory